Terminal Aerodrome Forecast
Issued by NWS

Current Version | Previous Version | Graphics & Text | Print | Product List | Glossary On
Versions: 1 2 3 4 5 6 7 8 9 10 11 12 13 14 15 16
689
FTUS41 KILN 182331
TAFLCK
TAF
KLCK 182331Z 1900/1924 12007KT P6SM OVC250
     FM190700 14007KT P6SM BKN120 WS020/18040KT
     FM191100 17008KT P6SM VCSH BKN022 WS020/21045KT
     FM191300 17009KT 2SM SHRA OVC012 WS020/21045KT
     FM191500 19010KT 2SM SHRA OVC008
     FM191800 21014G22KT P6SM VCSH OVC012
     FM192000 21014G22KT P6SM SCT012 BKN250=

USA.gov is the U.S. government's official web portal to all federal, state and local government web resources and services.